sensor_id;sensor_type;location;lat;lon;timestamp;pressure;altitude;pressure_sealevel;temperature;humidity
28683;BME280;15862;43.062;25.626;2022-08-01T00:00:35;99638.66;;;18.86;100.00
28683;BME280;15862;43.062;25.626;2022-08-01T00:03:01;99610.75;;;18.70;100.00
28683;BME280;15862;43.062;25.626;2022-08-01T00:05:27;99622.31;;;18.76;100.00
28683;BME280;15862;43.062;25.626;2022-08-01T00:07:52;99624.94;;;18.76;100.00
28683;BME280;15862;43.062;25.626;2022-08-01T00:10:18;99616.31;;;18.67;100.00
28683;BME280;15862;43.062;25.626;2022-08-01T00:12:44;99614.19;;;18.63;100.00
28683;BME280;15862;43.062;25.626;2022-08-01T00:15:12;99624.00;;;18.69;100.00
28683;BME280;15862;43.062;25.626;2022-08-01T00:17:38;99620.75;;;18.67;100.00
28683;BME280;15862;43.062;25.626;2022-08-01T00:20:08;99615.84;;;18.64;100.00
28683;BME280;15862;43.062;25.626;2022-08-01T00:22:34;99613.25;;;18.56;100.00
28683;BME280;15862;43.062;25.626;2022-08-01T00:25:00;99620.16;;;18.49;100.00
28683;BME280;15862;43.062;25.626;2022-08-01T00:27:26;99602.22;;;18.38;100.00
28683;BME280;15862;43.062;25.626;2022-08-01T00:29:52;99601.56;;;18.36;100.00
28683;BME280;15862;43.062;25.626;2022-08-01T00:32:17;99602.88;;;18.32;100.00
28683;BME280;15862;43.062;25.626;2022-08-01T00:34:43;99601.75;;;18.35;100.00
28683;BME280;15862;43.062;25.626;2022-08-01T00:37:09;99593.06;;;18.34;100.00
28683;BME280;15862;43.062;25.626;2022-08-01T00:39:34;99594.88;;;18.34;100.00
28683;BME280;15862;43.062;25.626;2022-08-01T00:42:31;99592.75;;;18.29;100.00
28683;BME280;15862;43.062;25.626;2022-08-01T00:44:56;99584.75;;;18.31;100.00
28683;BME280;15862;43.062;25.626;2022-08-01T00:47:27;99580.34;;;18.31;100.00
28683;BME280;15862;43.062;25.626;2022-08-01T00:50:15;99582.31;;;18.29;100.00
28683;BME280;15862;43.062;25.626;2022-08-01T00:52:40;99587.53;;;18.29;100.00
28683;BME280;15862;43.062;25.626;2022-08-01T00:55:08;99588.22;;;18.23;100.00
28683;BME280;15862;43.062;25.626;2022-08-01T00:58:18;99580.66;;;18.28;100.00
28683;BME280;15862;43.062;25.626;2022-08-01T01:00:55;99586.56;;;18.22;100.00
28683;BME280;15862;43.062;25.626;2022-08-01T01:03:22;99574.63;;;18.20;100.00
28683;BME280;15862;43.062;25.626;2022-08-01T01:06:20;99584.44;;;18.18;100.00
28683;BME280;15862;43.062;25.626;2022-08-01T01:09:29;99573.97;;;18.18;100.00
28683;BME280;15862;43.062;25.626;2022-08-01T01:12:24;99576.94;;;18.07;100.00
28683;BME280;15862;43.062;25.626;2022-08-01T01:14:58;99573.22;;;18.01;100.00
28683;BME280;15862;43.062;25.626;2022-08-01T01:17:48;99576.47;;;17.95;100.00
28683;BME280;15862;43.062;25.626;2022-08-01T01:20:17;99570.25;;;17.96;100.00
28683;BME280;15862;43.062;25.626;2022-08-01T01:30:53;99567.03;;;17.78;100.00
28683;BME280;15862;43.062;25.626;2022-08-01T01:33:21;99566.38;;;17.76;100.00
28683;BME280;15862;43.062;25.626;2022-08-01T01:35:59;99554.28;;;17.75;100.00
28683;BME280;15862;43.062;25.626;2022-08-01T01:38:31;99562.13;;;17.75;100.00
28683;BME280;15862;43.062;25.626;2022-08-01T01:40:57;99556.28;;;17.65;100.00
28683;BME280;15862;43.062;25.626;2022-08-01T01:43:32;99562.00;;;17.61;100.00
28683;BME280;15862;43.062;25.626;2022-08-01T01:45:59;99570.34;;;17.64;100.00
28683;BME280;15862;43.062;25.626;2022-08-01T01:48:26;99556.94;;;17.60;100.00
28683;BME280;15862;43.062;25.626;2022-08-01T01:50:52;99565.44;;;17.62;100.00
28683;BME280;15862;43.062;25.626;2022-08-01T01:53:20;99553.03;;;17.63;100.00
28683;BME280;15862;43.062;25.626;2022-08-01T01:55:50;99554.97;;;17.62;100.00
28683;BME280;15862;43.062;25.626;2022-08-01T01:58:18;99556.63;;;17.63;100.00
28683;BME280;15862;43.062;25.626;2022-08-01T02:00:46;99555.63;;;17.63;100.00
28683;BME280;15862;43.062;25.626;2022-08-01T02:03:12;99558.56;;;17.68;100.00
28683;BME280;15862;43.062;25.626;2022-08-01T02:05:40;99537.84;;;17.51;100.00
28683;BME280;15862;43.062;25.626;2022-08-01T02:08:07;99555.78;;;17.70;100.00
28683;BME280;15862;43.062;25.626;2022-08-01T02:10:35;99570.31;;;17.72;100.00
28683;BME280;15862;43.062;25.626;2022-08-01T02:13:04;99556.91;;;17.67;100.00
28683;BME280;15862;43.062;25.626;2022-08-01T02:15:32;99564.44;;;17.70;100.00
28683;BME280;15862;43.062;25.626;2022-08-01T02:17:59;99567.22;;;17.69;100.00
28683;BME280;15862;43.062;25.626;2022-08-01T02:20:30;99546.16;;;17.63;100.00
28683;BME280;15862;43.062;25.626;2022-08-01T02:23:01;99559.22;;;17.70;100.00
28683;BME280;15862;43.062;25.626;2022-08-01T02:25:32;99549.75;;;17.62;100.00
28683;BME280;15862;43.062;25.626;2022-08-01T02:28:03;99550.09;;;17.59;100.00
28683;BME280;15862;43.062;25.626;2022-08-01T02:30:35;99535.25;;;17.43;100.00
28683;BME280;15862;43.062;25.626;2022-08-01T02:33:08;99548.13;;;17.53;100.00
28683;BME280;15862;43.062;25.626;2022-08-01T02:35:38;99558.91;;;17.50;100.00
28683;BME280;15862;43.062;25.626;2022-08-01T02:38:06;99548.28;;;17.51;100.00
28683;BME280;15862;43.062;25.626;2022-08-01T02:40:38;99531.47;;;17.46;100.00
28683;BME280;15862;43.062;25.626;2022-08-01T02:43:05;99547.31;;;17.52;100.00
28683;BME280;15862;43.062;25.626;2022-08-01T02:45:32;99525.94;;;17.41;100.00
28683;BME280;15862;43.062;25.626;2022-08-01T02:48:11;99539.78;;;17.49;100.00
28683;BME280;15862;43.062;25.626;2022-08-01T02:50:39;99547.81;;;17.48;100.00
28683;BME280;15862;43.062;25.626;2022-08-01T02:53:08;99548.13;;;17.45;100.00
28683;BME280;15862;43.062;25.626;2022-08-01T02:55:36;99537.69;;;17.45;100.00
28683;BME280;15862;43.062;25.626;2022-08-01T02:58:04;99539.66;;;17.43;100.00
28683;BME280;15862;43.062;25.626;2022-08-01T03:00:32;99539.00;;;17.41;100.00
28683;BME280;15862;43.062;25.626;2022-08-01T03:02:59;99530.19;;;17.42;100.00
28683;BME280;15862;43.062;25.626;2022-08-01T03:05:33;99531.66;;;17.28;100.00
28683;BME280;15862;43.062;25.626;2022-08-01T03:08:00;99528.69;;;17.23;100.00
28683;BME280;15862;43.062;25.626;2022-08-01T03:10:29;99533.56;;;17.26;100.00
28683;BME280;15862;43.062;25.626;2022-08-01T03:12:57;99529.50;;;17.24;100.00
28683;BME280;15862;43.062;25.626;2022-08-01T03:15:24;99532.78;;;17.26;100.00
28683;BME280;15862;43.062;25.626;2022-08-01T03:17:54;99529.19;;;17.27;100.00
28683;BME280;15862;43.062;25.626;2022-08-01T03:20:21;99524.94;;;17.26;100.00
28683;BME280;15862;43.062;25.626;2022-08-01T03:22:50;99533.75;;;17.25;100.00
28683;BME280;15862;43.062;25.626;2022-08-01T03:25:18;99534.41;;;17.27;100.00
28683;BME280;15862;43.062;25.626;2022-08-01T03:27:50;99534.41;;;17.27;100.00
28683;BME280;15862;43.062;25.626;2022-08-01T03:30:17;99521.38;;;17.35;100.00
28683;BME280;15862;43.062;25.626;2022-08-01T03:32:42;99531.34;;;17.31;100.00
28683;BME280;15862;43.062;25.626;2022-08-01T03:35:08;99533.09;;;17.23;100.00
28683;BME280;15862;43.062;25.626;2022-08-01T03:37:38;99526.09;;;17.23;100.00
28683;BME280;15862;43.062;25.626;2022-08-01T03:40:09;99529.50;;;17.24;100.00
28683;BME280;15862;43.062;25.626;2022-08-01T03:42:41;99527.56;;;17.26;100.00
28683;BME280;15862;43.062;25.626;2022-08-01T03:45:10;99534.94;;;17.30;100.00
28683;BME280;15862;43.062;25.626;2022-08-01T03:47:42;99534.09;;;17.30;100.00
28683;BME280;15862;43.062;25.626;2022-08-01T03:50:10;99520.22;;;17.37;100.00
28683;BME280;15862;43.062;25.626;2022-08-01T03:52:38;99524.31;;;17.48;100.00
28683;BME280;15862;43.062;25.626;2022-08-01T03:55:06;99519.56;;;17.51;100.00
28683;BME280;15862;43.062;25.626;2022-08-01T03:57:33;99522.16;;;17.59;100.00
28683;BME280;15862;43.062;25.626;2022-08-01T04:00:00;99528.19;;;17.67;100.00
28683;BME280;15862;43.062;25.626;2022-08-01T04:02:27;99526.19;;;17.85;100.00
28683;BME280;15862;43.062;25.626;2022-08-01T04:04:53;99526.78;;;18.03;100.00
28683;BME280;15862;43.062;25.626;2022-08-01T04:07:27;99518.66;;;18.37;100.00
28683;BME280;15862;43.062;25.626;2022-08-01T04:09:53;99515.28;;;18.58;100.00
28683;BME280;15862;43.062;25.626;2022-08-01T04:12:19;99517.50;;;18.69;100.00
28683;BME280;15862;43.062;25.626;2022-08-01T04:14:45;99527.47;;;18.96;100.00
28683;BME280;15862;43.062;25.626;2022-08-01T04:17:11;99509.97;;;19.19;100.00
28683;BME280;15862;43.062;25.626;2022-08-01T04:19:36;99523.53;;;19.59;100.00
28683;BME280;15862;43.062;25.626;2022-08-01T04:22:02;99521.66;;;20.25;94.72
28683;BME280;15862;43.062;25.626;2022-08-01T04:24:28;99514.38;;;20.91;88.05
28683;BME280;15862;43.062;25.626;2022-08-01T04:26:57;99519.09;;;21.23;88.14
28683;BME280;15862;43.062;25.626;2022-08-01T04:29:25;99517.88;;;21.67;83.63
28683;BME280;15862;43.062;25.626;2022-08-01T04:31:54;99499.25;;;22.03;78.53
28683;BME280;15862;43.062;25.626;2022-08-01T04:34:23;99502.06;;;22.35;76.42
28683;BME280;15862;43.062;25.626;2022-08-01T04:36:52;99495.63;;;22.50;72.44
28683;BME280;15862;43.062;25.626;2022-08-01T04:39:20;99503.63;;;22.83;67.49
28683;BME280;15862;43.062;25.626;2022-08-01T04:41:46;99516.59;;;22.84;68.67
28683;BME280;15862;43.062;25.626;2022-08-01T04:44:14;99515.22;;;23.01;65.26
28683;BME280;15862;43.062;25.626;2022-08-01T04:46:40;99514.81;;;23.04;63.96
28683;BME280;15862;43.062;25.626;2022-08-01T04:49:09;99523.50;;;22.98;62.65
28683;BME280;15862;43.062;25.626;2022-08-01T04:51:48;99517.06;;;23.20;61.14
28683;BME280;15862;43.062;25.626;2022-08-01T04:54:14;99520.13;;;23.30;67.00
28683;BME280;15862;43.062;25.626;2022-08-01T04:56:40;99512.41;;;23.54;63.56
28683;BME280;15862;43.062;25.626;2022-08-01T04:59:06;99507.91;;;23.93;55.99
28683;BME280;15862;43.062;25.626;2022-08-01T05:01:50;99499.03;;;24.45;53.82
28683;BME280;15862;43.062;25.626;2022-08-01T05:04:15;99505.78;;;25.09;51.12
28683;BME280;15862;43.062;25.626;2022-08-01T05:06:41;99506.22;;;26.15;46.59
28683;BME280;15862;43.062;25.626;2022-08-01T05:09:06;99503.03;;;26.24;44.11
28683;BME280;15862;43.062;25.626;2022-08-01T05:11:32;99497.25;;;26.16;44.00
28683;BME280;15862;43.062;25.626;2022-08-01T05:13:57;99495.84;;;26.13;44.22
28683;BME280;15862;43.062;25.626;2022-08-01T05:16:22;99500.69;;;25.80;43.64
28683;BME280;15862;43.062;25.626;2022-08-01T05:18:48;99495.31;;;25.45;43.54
28683;BME280;15862;43.062;25.626;2022-08-01T05:21:13;99481.72;;;25.17;43.09
28683;BME280;15862;43.062;25.626;2022-08-01T05:23:39;99490.72;;;25.03;43.72
28683;BME280;15862;43.062;25.626;2022-08-01T05:26:05;99488.59;;;24.87;44.15
28683;BME280;15862;43.062;25.626;2022-08-01T05:28:30;99495.31;;;24.52;44.40
28683;BME280;15862;43.062;25.626;2022-08-01T05:30:56;99487.41;;;24.52;44.59
28683;BME280;15862;43.062;25.626;2022-08-01T05:33:22;99477.28;;;24.36;44.34
28683;BME280;15862;43.062;25.626;2022-08-01T05:35:47;99483.38;;;24.43;44.28
28683;BME280;15862;43.062;25.626;2022-08-01T05:38:12;99487.41;;;24.46;44.26
28683;BME280;15862;43.062;25.626;2022-08-01T05:40:38;99484.78;;;24.46;44.24
28683;BME280;15862;43.062;25.626;2022-08-01T05:43:03;99492.84;;;24.57;43.60
28683;BME280;15862;43.062;25.626;2022-08-01T05:45:29;99491.41;;;24.61;43.23
28683;BME280;15862;43.062;25.626;2022-08-01T05:47:54;99492.97;;;24.75;43.67
28683;BME280;15862;43.062;25.626;2022-08-01T05:50:20;99481.88;;;24.91;44.00
28683;BME280;15862;43.062;25.626;2022-08-01T05:52:45;99491.94;;;25.07;43.50
28683;BME280;15862;43.062;25.626;2022-08-01T05:55:11;99493.41;;;25.27;42.70
28683;BME280;15862;43.062;25.626;2022-08-01T05:57:36;99500.44;;;25.40;41.56
28683;BME280;15862;43.062;25.626;2022-08-01T06:00:02;99487.78;;;25.66;40.46
28683;BME280;15862;43.062;25.626;2022-08-01T06:02:28;99490.91;;;25.99;40.31
28683;BME280;15862;43.062;25.626;2022-08-01T06:04:53;99494.03;;;26.61;39.58
28683;BME280;15862;43.062;25.626;2022-08-01T06:07:19;99496.44;;;27.09;38.06
28683;BME280;15862;43.062;25.626;2022-08-01T06:09:44;99495.97;;;27.24;37.21
28683;BME280;15862;43.062;25.626;2022-08-01T06:12:09;99480.34;;;27.80;36.57
28683;BME280;15862;43.062;25.626;2022-08-01T06:14:35;99490.47;;;28.45;34.97
28683;BME280;15862;43.062;25.626;2022-08-01T06:17:00;99497.41;;;28.85;34.41
28683;BME280;15862;43.062;25.626;2022-08-01T06:19:26;99497.59;;;29.44;33.06
28683;BME280;15862;43.062;25.626;2022-08-01T06:21:51;99486.09;;;29.76;32.92
28683;BME280;15862;43.062;25.626;2022-08-01T06:24:17;99491.75;;;30.60;32.10
28683;BME280;15862;43.062;25.626;2022-08-01T06:26:42;99491.56;;;30.67;31.20
28683;BME280;15862;43.062;25.626;2022-08-01T06:29:08;99485.97;;;30.68;31.32
28683;BME280;15862;43.062;25.626;2022-08-01T06:31:33;99491.38;;;30.73;31.21
28683;BME280;15862;43.062;25.626;2022-08-01T06:33:58;99480.41;;;30.48;31.10
28683;BME280;15862;43.062;25.626;2022-08-01T06:36:24;99473.28;;;31.07;30.71
28683;BME280;15862;43.062;25.626;2022-08-01T06:38:50;99475.34;;;31.31;30.16
28683;BME280;15862;43.062;25.626;2022-08-01T06:41:16;99483.75;;;31.13;30.27
28683;BME280;15862;43.062;25.626;2022-08-01T06:43:41;99476.22;;;31.41;30.02
28683;BME280;15862;43.062;25.626;2022-08-01T06:46:07;99485.88;;;31.83;29.74
28683;BME280;15862;43.062;25.626;2022-08-01T06:48:32;99467.31;;;32.08;29.20
28683;BME280;15862;43.062;25.626;2022-08-01T06:50:58;99476.91;;;32.90;28.95
28683;BME280;15862;43.062;25.626;2022-08-01T06:53:39;99468.38;;;33.28;28.46
28683;BME280;15862;43.062;25.626;2022-08-01T06:56:05;99481.78;;;33.23;28.68
28683;BME280;15862;43.062;25.626;2022-08-01T06:58:31;99480.13;;;33.72;27.91
28683;BME280;15862;43.062;25.626;2022-08-01T07:01:09;99474.00;;;32.92;28.04
28683;BME280;15862;43.062;25.626;2022-08-01T07:03:36;99472.63;;;33.04;27.90
28683;BME280;15862;43.062;25.626;2022-08-01T07:06:02;99482.75;;;32.63;28.86
28683;BME280;15862;43.062;25.626;2022-08-01T07:08:28;99470.47;;;32.71;28.40
28683;BME280;15862;43.062;25.626;2022-08-01T07:10:53;99457.88;;;32.62;29.01
28683;BME280;15862;43.062;25.626;2022-08-01T07:13:19;99468.88;;;33.05;28.60
28683;BME280;15862;43.062;25.626;2022-08-01T07:15:48;99458.75;;;33.32;28.27
28683;BME280;15862;43.062;25.626;2022-08-01T07:18:13;99460.94;;;34.18;27.62
28683;BME280;15862;43.062;25.626;2022-08-01T07:20:39;99472.06;;;34.50;27.08
28683;BME280;15862;43.062;25.626;2022-08-01T07:23:04;99470.69;;;33.99;26.58
28683;BME280;15862;43.062;25.626;2022-08-01T07:25:30;99466.91;;;34.05;26.68
28683;BME280;15862;43.062;25.626;2022-08-01T07:27:55;99453.34;;;33.57;27.40
28683;BME280;15862;43.062;25.626;2022-08-01T07:30:21;99456.22;;;33.90;27.35
28683;BME280;15862;43.062;25.626;2022-08-01T07:32:47;99454.53;;;34.09;26.57
28683;BME280;15862;43.062;25.626;2022-08-01T07:35:12;99463.72;;;34.61;27.11
28683;BME280;15862;43.062;25.626;2022-08-01T07:37:38;99477.03;;;35.14;25.74
28683;BME280;15862;43.062;25.626;2022-08-01T07:40:13;99465.94;;;34.88;26.65
28683;BME280;15862;43.062;25.626;2022-08-01T07:43:12;99472.63;;;34.47;26.82
28683;BME280;15862;43.062;25.626;2022-08-01T07:46:04;99462.59;;;34.04;26.71
28683;BME280;15862;43.062;25.626;2022-08-01T07:48:39;99463.81;;;34.85;26.78
28683;BME280;15862;43.062;25.626;2022-08-01T07:51:04;99476.38;;;34.51;26.78
28683;BME280;15862;43.062;25.626;2022-08-01T07:53:30;99485.50;;;34.55;26.53
28683;BME280;15862;43.062;25.626;2022-08-01T07:55:55;99478.28;;;34.89;26.63
28683;BME280;15862;43.062;25.626;2022-08-01T07:58:21;99478.06;;;35.23;26.02
28683;BME280;15862;43.062;25.626;2022-08-01T08:00:46;99477.84;;;35.43;25.34
28683;BME280;15862;43.062;25.626;2022-08-01T08:03:11;99484.94;;;34.58;26.36
28683;BME280;15862;43.062;25.626;2022-08-01T08:05:37;99482.97;;;34.73;26.91
28683;BME280;15862;43.062;25.626;2022-08-01T08:08:07;99476.88;;;34.96;26.03
28683;BME280;15862;43.062;25.626;2022-08-01T08:10:33;99477.56;;;35.45;26.45
28683;BME280;15862;43.062;25.626;2022-08-01T08:12:59;99479.91;;;35.56;25.99
28683;BME280;15862;43.062;25.626;2022-08-01T08:15:27;99482.28;;;35.86;25.13
28683;BME280;15862;43.062;25.626;2022-08-01T08:17:52;99465.56;;;35.32;25.50
28683;BME280;15862;43.062;25.626;2022-08-01T08:20:18;99478.41;;;35.12;26.29
28683;BME280;15862;43.062;25.626;2022-08-01T08:22:43;99467.56;;;34.84;25.92
28683;BME280;15862;43.062;25.626;2022-08-01T08:25:09;99468.13;;;35.47;26.25
28683;BME280;15862;43.062;25.626;2022-08-01T08:27:35;99467.09;;;35.15;26.27
28683;BME280;15862;43.062;25.626;2022-08-01T08:30:05;99463.91;;;34.70;26.31
28683;BME280;15862;43.062;25.626;2022-08-01T08:32:39;99447.41;;;34.86;26.59
28683;BME280;15862;43.062;25.626;2022-08-01T08:35:06;99460.22;;;34.99;26.37
28683;BME280;15862;43.062;25.626;2022-08-01T08:37:33;99469.53;;;35.11;25.73
28683;BME280;15862;43.062;25.626;2022-08-01T08:39:59;99469.50;;;35.45;26.33
28683;BME280;15862;43.062;25.626;2022-08-01T08:42:25;99477.72;;;35.87;25.72
28683;BME280;15862;43.062;25.626;2022-08-01T08:44:50;99460.28;;;35.56;25.64
28683;BME280;15862;43.062;25.626;2022-08-01T08:47:17;99463.88;;;34.75;26.34
28683;BME280;15862;43.062;25.626;2022-08-01T08:49:43;99460.03;;;34.86;26.90
28683;BME280;15862;43.062;25.626;2022-08-01T08:52:10;99457.03;;;34.54;27.20
28683;BME280;15862;43.062;25.626;2022-08-01T08:54:41;99452.50;;;34.88;27.05
28683;BME280;15862;43.062;25.626;2022-08-01T08:57:07;99462.81;;;35.71;25.79
28683;BME280;15862;43.062;25.626;2022-08-01T08:59:32;99459.28;;;35.75;25.53
28683;BME280;15862;43.062;25.626;2022-08-01T09:01:59;99461.94;;;35.18;26.15
28683;BME280;15862;43.062;25.626;2022-08-01T09:04:25;99474.81;;;37.03;24.96
28683;BME280;15862;43.062;25.626;2022-08-01T09:06:52;99460.41;;;36.76;25.07
28683;BME280;15862;43.062;25.626;2022-08-01T09:09:17;99471.09;;;36.99;24.73
28683;BME280;15862;43.062;25.626;2022-08-01T09:11:43;99459.69;;;36.29;24.86
28683;BME280;15862;43.062;25.626;2022-08-01T09:14:26;99460.91;;;35.99;25.33
28683;BME280;15862;43.062;25.626;2022-08-01T09:19:25;99455.00;;;36.58;24.62
28683;BME280;15862;43.062;25.626;2022-08-01T09:22:02;99439.38;;;36.60;24.49
28683;BME280;15862;43.062;25.626;2022-08-01T09:24:30;99459.91;;;36.14;25.68
28683;BME280;15862;43.062;25.626;2022-08-01T09:26:56;99443.72;;;36.92;25.18
28683;BME280;15862;43.062;25.626;2022-08-01T09:29:30;99434.94;;;36.68;24.80
28683;BME280;15862;43.062;25.626;2022-08-01T09:32:06;99426.09;;;36.81;25.39
28683;BME280;15862;43.062;25.626;2022-08-01T09:34:32;99443.00;;;35.85;25.99
28683;BME280;15862;43.062;25.626;2022-08-01T09:37:00;99438.53;;;34.47;27.48
28683;BME280;15862;43.062;25.626;2022-08-01T09:39:36;99454.59;;;36.87;25.55
28683;BME280;15862;43.062;25.626;2022-08-01T09:42:26;99441.47;;;37.31;24.45
28683;BME280;15862;43.062;25.626;2022-08-01T09:44:52;99438.63;;;36.72;24.30
28683;BME280;15862;43.062;25.626;2022-08-01T09:47:19;99448.50;;;36.40;25.09
28683;BME280;15862;43.062;25.626;2022-08-01T09:49:53;99452.66;;;36.33;25.11
28683;BME280;15862;43.062;25.626;2022-08-01T09:52:21;99441.78;;;36.19;25.42
28683;BME280;15862;43.062;25.626;2022-08-01T09:54:56;99432.56;;;36.99;24.59
28683;BME280;15862;43.062;25.626;2022-08-01T09:57:22;99434.41;;;37.35;24.51
28683;BME280;15862;43.062;25.626;2022-08-01T09:59:51;99435.56;;;36.97;24.72
28683;BME280;15862;43.062;25.626;2022-08-01T10:04:56;99448.50;;;37.59;23.17
28683;BME280;15862;43.062;25.626;2022-08-01T10:07:21;99449.31;;;37.59;24.04
28683;BME280;15862;43.062;25.626;2022-08-01T10:09:47;99473.53;;;37.14;23.64
28683;BME280;15862;43.062;25.626;2022-08-01T10:12:16;99469.25;;;37.45;24.02
28683;BME280;15862;43.062;25.626;2022-08-01T10:14:46;99467.56;;;37.17;24.25
28683;BME280;15862;43.062;25.626;2022-08-01T10:17:14;99444.06;;;37.04;24.70
28683;BME280;15862;43.062;25.626;2022-08-01T10:19:41;99434.25;;;35.75;25.61
28683;BME280;15862;43.062;25.626;2022-08-01T10:22:09;99419.34;;;34.21;26.79
28683;BME280;15862;43.062;25.626;2022-08-01T10:24:39;99434.00;;;33.55;27.46
28683;BME280;15862;43.062;25.626;2022-08-01T10:27:07;99438.09;;;33.03;28.69
28683;BME280;15862;43.062;25.626;2022-08-01T10:29:46;99437.00;;;32.79;29.17
28683;BME280;15862;43.062;25.626;2022-08-01T10:32:12;99437.53;;;33.45;28.28
28683;BME280;15862;43.062;25.626;2022-08-01T10:34:37;99447.06;;;34.01;27.90
28683;BME280;15862;43.062;25.626;2022-08-01T10:37:06;99437.78;;;35.70;25.64
28683;BME280;15862;43.062;25.626;2022-08-01T10:39:33;99441.56;;;34.31;27.11
28683;BME280;15862;43.062;25.626;2022-08-01T10:41:59;99436.69;;;33.55;27.78
28683;BME280;15862;43.062;25.626;2022-08-01T10:44:27;99427.50;;;34.49;26.61
28683;BME280;15862;43.062;25.626;2022-08-01T10:46:57;99433.97;;;36.60;24.65
28683;BME280;15862;43.062;25.626;2022-08-01T10:49:28;99440.72;;;38.25;23.86
28683;BME280;15862;43.062;25.626;2022-08-01T10:51:54;99427.19;;;38.38;23.00
28683;BME280;15862;43.062;25.626;2022-08-01T10:54:24;99427.72;;;37.73;24.09
28683;BME280;15862;43.062;25.626;2022-08-01T10:56:50;99436.84;;;35.61;26.15
28683;BME280;15862;43.062;25.626;2022-08-01T10:59:22;99427.81;;;36.17;26.05
28683;BME280;15862;43.062;25.626;2022-08-01T11:01:57;99442.72;;;36.88;24.59
28683;BME280;15862;43.062;25.626;2022-08-01T11:07:05;99429.06;;;35.26;26.99
28683;BME280;15862;43.062;25.626;2022-08-01T11:09:44;99440.59;;;36.07;25.93
28683;BME280;15862;43.062;25.626;2022-08-01T11:12:15;99426.41;;;36.62;25.45
28683;BME280;15862;43.062;25.626;2022-08-01T11:17:46;99436.25;;;35.87;25.59
28683;BME280;15862;43.062;25.626;2022-08-01T11:20:30;99429.31;;;36.05;25.70
28683;BME280;15862;43.062;25.626;2022-08-01T11:38:42;99407.22;;;40.12;22.05
28683;BME280;15862;43.062;25.626;2022-08-01T11:41:31;99402.31;;;38.85;23.06
28683;BME280;15862;43.062;25.626;2022-08-01T11:47:05;99386.06;;;34.98;27.14
28683;BME280;15862;43.062;25.626;2022-08-01T11:52:08;99392.66;;;36.09;25.68
28683;BME280;15862;43.062;25.626;2022-08-01T11:54:51;99389.88;;;34.92;26.52
28683;BME280;15862;43.062;25.626;2022-08-01T11:57:18;99398.69;;;35.54;25.81
28683;BME280;15862;43.062;25.626;2022-08-01T12:02:28;99385.97;;;36.80;24.50
28683;BME280;15862;43.062;25.626;2022-08-01T12:07:23;99381.34;;;35.13;26.59
28683;BME280;15862;43.062;25.626;2022-08-01T12:12:29;99384.34;;;35.64;26.48
28683;BME280;15862;43.062;25.626;2022-08-01T12:15:00;99373.41;;;36.39;25.94
28683;BME280;15862;43.062;25.626;2022-08-01T12:17:54;99373.38;;;35.32;26.99
28683;BME280;15862;43.062;25.626;2022-08-01T12:20:22;99385.56;;;35.24;26.90
28683;BME280;15862;43.062;25.626;2022-08-01T12:22:52;99362.28;;;34.82;27.67
28683;BME280;15862;43.062;25.626;2022-08-01T12:25:19;99375.66;;;36.13;26.98
28683;BME280;15862;43.062;25.626;2022-08-01T12:27:45;99378.22;;;36.42;26.13
28683;BME280;15862;43.062;25.626;2022-08-01T12:30:13;99377.03;;;34.51;28.11
28683;BME280;15862;43.062;25.626;2022-08-01T12:32:41;99373.00;;;34.00;29.68
28683;BME280;15862;43.062;25.626;2022-08-01T12:35:07;99375.56;;;34.97;28.22
28683;BME280;15862;43.062;25.626;2022-08-01T12:40:19;99364.06;;;35.71;27.17
28683;BME280;15862;43.062;25.626;2022-08-01T12:42:51;99347.53;;;37.06;25.88
28683;BME280;15862;43.062;25.626;2022-08-01T12:45:23;99348.91;;;37.04;26.17
28683;BME280;15862;43.062;25.626;2022-08-01T12:47:50;99365.31;;;36.39;26.75
28683;BME280;15862;43.062;25.626;2022-08-01T12:50:21;99366.19;;;35.74;27.20
28683;BME280;15862;43.062;25.626;2022-08-01T12:53:21;99349.94;;;36.58;27.03
28683;BME280;15862;43.062;25.626;2022-08-01T12:55:54;99351.69;;;36.49;27.01
28683;BME280;15862;43.062;25.626;2022-08-01T12:58:21;99348.00;;;36.26;26.97
28683;BME280;15862;43.062;25.626;2022-08-01T13:00:51;99348.00;;;34.58;28.70
28683;BME280;15862;43.062;25.626;2022-08-01T13:03:29;99350.47;;;34.44;29.34
28683;BME280;15862;43.062;25.626;2022-08-01T13:05:57;99347.25;;;33.99;29.66
28683;BME280;15862;43.062;25.626;2022-08-01T13:11:47;99330.00;;;34.53;29.17
28683;BME280;15862;43.062;25.626;2022-08-01T13:14:42;99329.91;;;35.25;28.53
28683;BME280;15862;43.062;25.626;2022-08-01T13:17:10;99329.56;;;34.75;29.00
28683;BME280;15862;43.062;25.626;2022-08-01T13:19:51;99330.78;;;34.92;29.02
28683;BME280;15862;43.062;25.626;2022-08-01T13:22:37;99316.75;;;33.80;29.71
28683;BME280;15862;43.062;25.626;2022-08-01T13:26:05;99330.28;;;33.50;30.22
28683;BME280;15862;43.062;25.626;2022-08-01T13:28:25;99333.53;;;34.11;29.77
28683;BME280;15862;43.062;25.626;2022-08-01T13:31:02;99345.13;;;33.96;29.63
28683;BME280;15862;43.062;25.626;2022-08-01T13:33:40;99340.53;;;34.45;28.56
28683;BME280;15862;43.062;25.626;2022-08-01T13:36:07;99343.50;;;35.10;28.06
28683;BME280;15862;43.062;25.626;2022-08-01T13:39:03;99341.91;;;33.99;29.42
28683;BME280;15862;43.062;25.626;2022-08-01T13:41:47;99332.03;;;32.97;30.28
28683;BME280;15862;43.062;25.626;2022-08-01T13:44:13;99344.34;;;32.88;30.97
28683;BME280;15862;43.062;25.626;2022-08-01T13:46:40;99341.63;;;32.43;31.19
28683;BME280;15862;43.062;25.626;2022-08-01T13:49:09;99324.97;;;32.01;32.12
28683;BME280;15862;43.062;25.626;2022-08-01T13:51:35;99340.59;;;32.39;32.09
28683;BME280;15862;43.062;25.626;2022-08-01T13:54:01;99339.00;;;32.48;31.61